Andrews AFB, Maryland
Current Conditions -  °F | °C
As of 9:58 AM on Thursday 30 Oct 2014 (Local Time) from KADW Reporting Station
Broken Clouds Broken Clouds  
Wind Chill: 53°   Ceiling: 6500
Heat Index: 53°   Visibility: 10mi
Dew Point: 38°   Wind: 15mph
Humidity: 58%   Direction: 310°NW
Pressure: 30.06"   Gusts: 23mph
Location:  38.8°N, 76.87°W
Report Text: KADW 301358Z AUTO 31013G20KT 10SM BKN065 12/04 A3006 RMK AO2 SLP187 T01170036 $
Loading
Personal Weather Stations






























Interactive Weather Map
Tropical Storm Tracking
New forecast layout! Learn more

10-Day Weather Forecast

Advertisements
Track Severe Weather on mobile